Huvudsida
METAR-TAF:

METAR-TAF

Flygplatser :

Ilam flygplats

Ilam, Iran

latitud: 33-35-09N, longitud: 046-24-20E, höjd: 1334 m

Aktuellt väderrapport

Denna rapport gjordes för 47 minuter sedan, klockan 18:00 UTC
Vind 4 kt från ost
Temperatur 7°C
Fuktighet 93%
Tryck 1019 hPa
Sikt 10 km eller mer
Inga moln under 1 500 m eller inga cumulonimbus

METAR: OICI 281800Z 08004KT CAVOK 07/06 Q1019 A3009

Tid: 22:17 (18:47 UTC)

Väderprognos

Denna rapport gjordes för 57 minuter sedan, klockan 17:50 UTC
Prognos gäller från 28 kl. 18 UTC till 29 kl. 24 UTC
Vind 8 kt från ost/sydost
Sikt: 7000 m
Temporärt
från 29 kl. 12 UTC till 29 kl. 18 UTC
Få moln på en höjd av 3000 ft, Cumulonimbus.
Spridda moln på en höjd av 4000 ft
Spridda moln på en höjd av 10000 ft

TAF: OICI 281750Z 2818/2924 12008KT 7000 NSC TEMPO 2912/2918 FEW030CB SCT040 SCT100

Aktuella väderrapporter och prognoser från 4000 flygplatser (METAR- och TAF-rapporter).

De tillgängliga stationerna syns som gula och röda prickar på kartan.

För musen över prickarna för att se namnen på stationerna.

Klicka sedan för att få väderrapporter och prognoser.

För att ändra kartan: Klicka på de gröna knapparna med ett svart kors på för att zooma in; den gröna knappen med ett streck på för att zooma ut; eller på de gröna pilarna för angränsande kartor.


METAR-TAF: